Time;durP1;ratioP1;P1;durP2;ratioP2;P2;SDS_P1;SDS_P2;PMS_P1;PMS_P2;Temp;Humidity;BMP_temperature;BMP_pressure;BME280_temperature;BME280_humidity;BME280_pressure;Samples;Min_cycle;Max_cycle;Signal;HPM_P1;HPM_P2
2021/04/03 00:00:21;;;;;;;0.20;0.20;;;;;;;28.38;15.45;101261.00;2068489;28;20033;-65
2021/04/03 00:01:40;;;;;;;0.93;0.20;;;;;;;27.06;16.13;101250.16;2073696;28;20041;-65
2021/04/03 00:02:59;;;;;;;0.32;0.32;;;;;;;28.12;15.17;101257.56;2079342;28;20041;-67
2021/04/03 00:04:18;;;;;;;1.10;0.50;;;;;;;26.76;15.98;101265.91;2084771;28;20428;-65
2021/04/03 00:05:39;;;;;;;2.10;0.30;;;;;;;27.48;15.90;101263.94;2093195;28;20495;-66
2021/04/03 00:06:58;;;;;;;6.22;1.55;;;;;;;28.03;15.15;101270.81;2093052;28;20033;-65
2021/04/03 00:08:18;;;;;;;1.35;0.32;;;;;;;27.02;16.03;101264.91;2083221;28;20037;-65
2021/04/03 00:09:37;;;;;;;6.40;0.60;;;;;;;28.03;15.54;101260.72;2082140;28;20034;-64
2021/04/03 00:10:57;;;;;;;2.00;0.40;;;;;;;26.86;15.78;101257.28;2084379;28;20540;-65
2021/04/03 00:12:16;;;;;;;0.68;0.47;;;;;;;27.59;15.62;101260.75;2082688;28;20036;-65
2021/04/03 00:13:39;;;;;;;0.80;0.30;;;;;;;26.91;16.12;101273.53;2087898;28;20037;-66
2021/04/03 00:14:58;;;;;;;0.40;0.30;;;;;;;26.08;16.68;101269.28;2086824;28;20029;-67
2021/04/03 00:16:17;;;;;;;0.85;0.20;;;;;;;26.01;16.84;101267.72;2089379;28;20413;-65
2021/04/03 00:17:36;;;;;;;0.63;0.30;;;;;;;26.02;16.45;101266.75;2082014;28;20048;-65
2021/04/03 00:18:55;;;;;;;1.05;0.40;;;;;;;27.04;16.09;101263.00;2093629;28;20243;-62
2021/04/03 00:20:16;;;;;;;5.13;0.20;;;;;;;28.60;15.25;101263.69;2084774;28;20411;-66
2021/04/03 00:21:35;;;;;;;1.05;0.30;;;;;;;29.50;14.31;101274.00;2072547;28;20037;-63
2021/04/03 00:22:54;;;;;;;0.93;0.30;;;;;;;29.50;14.11;101271.25;2077519;28;20041;-63
2021/04/03 00:24:13;;;;;;;5.43;0.40;;;;;;;28.24;15.08;101264.34;2086334;28;20033;-64
2021/04/03 00:25:32;;;;;;;1.08;0.20;;;;;;;26.51;16.08;101264.09;2088693;28;20052;-62
2021/04/03 00:26:52;;;;;;;1.30;0.22;;;;;;;26.07;16.81;101269.34;2085655;28;20041;-63
2021/04/03 00:28:11;;;;;;;0.60;0.30;;;;;;;27.53;15.28;101269.25;2087230;28;20500;-63
2021/04/03 00:29:29;;;;;;;0.93;0.22;;;;;;;27.93;15.17;101281.28;2084901;28;20033;-64
2021/04/03 00:30:49;;;;;;;1.98;0.22;;;;;;;27.12;15.62;101269.94;2091891;28;20376;-64
2021/04/03 00:32:08;;;;;;;1.42;0.30;;;;;;;27.21;15.56;101265.06;2079023;28;20041;-64
2021/04/03 00:33:27;;;;;;;0.65;0.30;;;;;;;27.12;15.79;101256.25;2079492;28;20120;-63
2021/04/03 00:34:46;;;;;;;0.20;0.20;;;;;;;27.47;15.46;101269.50;2087981;28;20032;-65
2021/04/03 00:36:05;;;;;;;4.00;0.30;;;;;;;26.73;16.04;101266.94;2082222;28;20033;-64
2021/04/03 00:37:24;;;;;;;4.32;0.50;;;;;;;28.09;15.05;101274.16;2083742;28;20033;-63
2021/04/03 00:38:42;;;;;;;1.70;0.20;;;;;;;28.86;14.55;101275.28;2086581;28;20044;-64
2021/04/03 00:40:05;;;;;;;0.50;0.20;;;;;;;26.81;15.61;101275.75;2078372;28;20036;-63
2021/04/03 00:41:25;;;;;;;0.90;0.30;;;;;;;29.10;14.22;101264.97;2076846;28;20151;-64
2021/04/03 00:42:45;;;;;;;0.10;0.10;;;;;;;29.54;13.91;101271.00;2083188;28;20033;-64
2021/04/03 00:44:06;;;;;;;1.73;0.20;;;;;;;29.20;13.99;101276.41;2078619;28;20034;-64
2021/04/03 00:45:26;;;;;;;1.00;0.30;;;;;;;27.40;14.86;101265.22;2076256;28;20041;-63
2021/04/03 00:46:45;;;;;;;0.80;0.47;;;;;;;28.47;14.36;101277.00;2081135;28;20040;-64
2021/04/03 00:48:05;;;;;;;3.03;0.40;;;;;;;27.20;14.80;101283.34;2088882;28;20040;-64
2021/04/03 00:49:23;;;;;;;1.00;0.25;;;;;;;24.87;17.02;101271.41;2087998;28;20045;-65
2021/04/03 00:50:47;;;;;;;2.20;0.30;;;;;;;27.11;15.37;101264.53;2093563;28;20028;-64
2021/04/03 00:52:08;;;;;;;0.60;0.30;;;;;;;26.31;15.64;101267.56;2094410;28;20484;-64
2021/04/03 00:53:28;;;;;;;0.45;0.10;;;;;;;27.62;14.68;101270.69;2082504;28;20529;-63
2021/04/03 00:54:47;;;;;;;1.95;0.20;;;;;;;26.74;15.59;101266.84;2070225;28;20049;-64
2021/04/03 00:56:06;;;;;;;0.45;0.20;;;;;;;27.25;15.34;101272.22;2082855;28;20041;-63
2021/04/03 00:57:25;;;;;;;0.30;0.30;;;;;;;27.28;15.34;101283.97;2085550;28;20025;-62
2021/04/03 00:58:44;;;;;;;0.45;0.20;;;;;;;26.76;15.29;101285.06;2090083;28;20064;-63
2021/04/03 01:00:05;;;;;;;0.43;0.30;;;;;;;28.20;14.46;101270.94;2083284;28;20645;-63
2021/04/03 01:01:24;;;;;;;1.33;0.10;;;;;;;26.19;15.94;101262.53;2075682;28;20120;-64
2021/04/03 01:02:44;;;;;;;1.75;0.65;;;;;;;26.44;15.91;101257.03;2079202;28;20525;-65
2021/04/03 01:04:03;;;;;;;0.98;0.70;;;;;;;26.43;15.59;101267.09;2072424;28;20061;-62
2021/04/03 01:05:24;;;;;;;1.30;0.43;;;;;;;27.84;14.76;101270.66;2083377;28;20037;-63
2021/04/03 01:06:43;;;;;;;0.55;0.38;;;;;;;26.43;16.08;101256.16;2085625;28;20045;-63
2021/04/03 01:08:03;;;;;;;0.57;0.30;;;;;;;26.51;15.72;101269.56;2080144;28;20043;-64
2021/04/03 01:09:22;;;;;;;3.30;0.20;;;;;;;27.47;15.28;101274.97;2093536;28;20032;-62
2021/04/03 01:10:43;;;;;;;0.22;0.10;;;;;;;27.11;14.98;101280.94;2077332;28;20041;-63
2021/04/03 01:12:30;;;;;;;1.08;0.30;;;;;;;29.04;14.28;101277.13;2068634;28;20044;-64
2021/04/03 01:14:08;;;;;;;1.05;0.17;;;;;;;29.18;14.00;101284.75;2092873;28;20476;-63
2021/04/03 01:15:49;;;;;;;1.73;0.20;;;;;;;27.62;15.01;101276.19;2090974;28;20059;-63
2021/04/03 01:17:44;;;;;;;3.15;0.20;;;;;;;27.97;14.59;101277.44;2093921;28;20045;-63
2021/04/03 01:19:21;;;;;;;0.80;0.30;;;;;;;30.38;13.47;101291.53;2081936;28;20052;-63
2021/04/03 01:20:47;;;;;;;0.60;0.20;;;;;;;29.09;13.74;101285.13;2093050;28;20443;-63
2021/04/03 01:22:40;;;;;;;0.68;0.38;;;;;;;27.87;14.71;101296.13;2075440;28;20050;-63
2021/04/03 01:24:34;;;;;;;1.75;0.20;;;;;;;25.65;16.33;101302.63;2082697;28;20503;-63
2021/04/03 01:25:56;;;;;;;0.30;0.20;;;;;;;27.18;15.46;101290.72;2085405;28;20068;-63
2021/04/03 01:27:18;;;;;;;1.23;0.17;;;;;;;27.60;14.91;101287.19;2081768;28;20037;-63
2021/04/03 01:29:11;;;;;;;0.20;0.20;;;;;;;26.64;15.63;101298.25;2073835;28;20034;-63
2021/04/03 01:30:31;;;;;;;0.85;0.30;;;;;;;26.24;15.91;101298.81;2073120;28;20033;-63
2021/04/03 01:31:51;;;;;;;2.65;0.30;;;;;;;28.47;14.40;101293.47;2074647;28;20045;-63
2021/04/03 01:33:11;;;;;;;0.45;0.10;;;;;;;27.05;15.40;101292.16;2088707;28;20029;-64
2021/04/03 01:34:31;;;;;;;0.88;0.20;;;;;;;28.05;14.62;101290.81;2092269;28;20036;-63
2021/04/03 01:35:55;;;;;;;0.70;0.28;;;;;;;28.47;14.48;101292.59;2085155;28;20036;-64
2021/04/03 01:37:19;;;;;;;0.38;0.20;;;;;;;27.39;14.89;101302.69;2083737;28;20033;-64
2021/04/03 01:38:45;;;;;;;1.08;0.13;;;;;;;25.67;16.17;101306.19;2081321;28;20037;-66
2021/04/03 01:40:04;;;;;;;2.10;0.17;;;;;;;28.69;14.26;101303.50;2081763;28;20037;-65
2021/04/03 01:41:26;;;;;;;1.88;0.20;;;;;;;28.26;14.59;101295.34;2092598;28;20044;-63
2021/04/03 01:42:48;;;;;;;0.93;0.20;;;;;;;27.69;14.96;101302.34;2086025;28;20444;-63
2021/04/03 01:44:10;;;;;;;0.87;0.30;;;;;;;27.50;15.32;101294.00;2081888;28;20543;-64
2021/04/03 01:45:30;;;;;;;0.43;0.15;;;;;;;28.87;13.97;101307.25;2077517;28;20255;-64
2021/04/03 01:46:50;;;;;;;0.25;0.10;;;;;;;26.88;15.39;101312.84;2094118;28;20036;-64
2021/04/03 01:48:10;;;;;;;1.00;0.30;;;;;;;29.22;14.24;101308.34;2089313;28;20037;-64
2021/04/03 01:49:30;;;;;;;1.10;0.20;;;;;;;29.62;13.97;101309.09;2083137;28;20025;-64
2021/04/03 01:50:50;;;;;;;0.32;0.15;;;;;;;28.83;14.41;101301.00;2084306;28;20033;-65
2021/04/03 01:52:09;;;;;;;0.80;0.10;;;;;;;30.15;13.37;101309.22;2090221;28;20020;-65
2021/04/03 01:53:29;;;;;;;0.50;0.20;;;;;;;28.19;14.56;101306.63;2098253;28;20028;-64
2021/04/03 01:54:51;;;;;;;1.17;0.32;;;;;;;26.56;15.97;101307.66;2088578;28;20415;-65
2021/04/03 01:56:11;;;;;;;0.75;0.10;;;;;;;28.61;14.60;101294.75;2083474;28;20029;-64
2021/04/03 01:57:31;;;;;;;1.08;0.20;;;;;;;30.29;13.30;101303.88;2074035;28;20521;-64
2021/04/03 01:58:51;;;;;;;0.35;0.13;;;;;;;29.52;13.87;101318.78;2074093;28;20073;-65
2021/04/03 02:00:13;;;;;;;3.42;0.20;;;;;;;25.83;16.49;101314.78;2085544;28;20075;-64
2021/04/03 02:01:36;;;;;;;0.65;0.20;;;;;;;27.57;15.18;101309.22;2075902;28;20029;-63
2021/04/03 02:02:56;;;;;;;0.35;0.03;;;;;;;26.17;16.11;101311.81;2088076;28;20029;-64
2021/04/03 02:04:16;;;;;;;0.98;0.30;;;;;;;28.61;14.88;101316.69;2084615;28;20037;-64
2021/04/03 02:05:36;;;;;;;1.55;0.43;;;;;;;29.33;14.22;101319.69;2077434;28;20033;-64
2021/04/03 02:06:56;;;;;;;0.55;0.20;;;;;;;28.76;14.44;101304.13;2081397;28;20151;-64
2021/04/03 02:08:16;;;;;;;1.60;0.50;;;;;;;27.62;15.07;101318.16;2085259;28;20030;-64
2021/04/03 02:09:35;;;;;;;0.77;0.10;;;;;;;29.73;14.09;101320.50;2080025;28;20041;-65
2021/04/03 02:10:58;;;;;;;0.63;0.10;;;;;;;28.19;14.93;101314.88;2094002;28;20463;-64
2021/04/03 02:12:19;;;;;;;0.30;0.10;;;;;;;27.79;15.02;101316.56;2089038;28;20029;-65
2021/04/03 02:13:38;;;;;;;0.65;0.10;;;;;;;27.05;15.59;101325.00;2086402;28;20037;-64
2021/04/03 02:14:57;;;;;;;2.35;0.30;;;;;;;29.44;13.98;101323.75;2080452;28;20032;-63
2021/04/03 02:16:17;;;;;;;0.85;0.20;;;;;;;29.48;14.49;101317.16;2089741;28;20049;-63
2021/04/03 02:17:38;;;;;;;0.10;0.10;;;;;;;28.42;14.74;101300.16;2083571;28;20493;-65
2021/04/03 02:18:59;;;;;;;1.00;0.10;;;;;;;26.62;16.16;101286.47;2085069;28;20044;-64
2021/04/03 02:20:18;;;;;;;0.57;0.10;;;;;;;29.01;14.49;101310.22;2080567;28;20034;-64
2021/04/03 02:21:38;;;;;;;0.77;0.20;;;;;;;30.40;13.63;101314.34;2065121;28;20030;-64
2021/04/03 02:22:59;;;;;;;1.23;0.10;;;;;;;29.12;14.22;101307.00;2076220;28;20045;-64
2021/04/03 02:24:18;;;;;;;1.35;0.13;;;;;;;28.68;14.63;101310.84;2074139;28;20120;-65
2021/04/03 02:25:37;;;;;;;0.40;0.10;;;;;;;28.30;14.58;101294.25;2078588;28;20123;-65
2021/04/03 02:26:56;;;;;;;0.20;0.10;;;;;;;28.40;14.94;101308.44;2081206;28;20049;-64
2021/04/03 02:28:15;;;;;;;0.35;0.10;;;;;;;29.56;14.33;101323.16;2083678;28;20021;-64
2021/04/03 02:29:34;;;;;;;0.52;0.20;;;;;;;28.91;14.49;101307.03;2079071;28;20026;-64
2021/04/03 02:30:54;;;;;;;0.20;0.10;;;;;;;28.67;14.56;101311.81;2081292;28;20416;-64
2021/04/03 02:32:13;;;;;;;0.47;0.25;;;;;;;26.96;15.81;101308.94;2069683;28;20509;-64
2021/04/03 02:33:32;;;;;;;0.77;0.40;;;;;;;29.34;14.11;101315.06;2086368;28;20203;-66
2021/04/03 02:34:51;;;;;;;0.50;0.10;;;;;;;28.21;14.81;101311.13;2084559;28;20030;-64
2021/04/03 02:36:10;;;;;;;2.10;0.20;;;;;;;29.68;14.12;101322.53;2091143;28;20132;-64
2021/04/03 02:37:29;;;;;;;4.25;0.20;;;;;;;29.96;13.86;101329.44;2083609;28;20112;-64
2021/04/03 02:38:49;;;;;;;1.55;0.60;;;;;;;29.17;14.36;101315.91;2086983;28;20044;-64
2021/04/03 02:40:11;;;;;;;1.13;0.40;;;;;;;27.82;15.42;101316.41;2085877;28;20037;-66
2021/04/03 02:41:37;;;;;;;0.65;0.15;;;;;;;26.10;16.88;101313.84;2093813;28;20384;-65
2021/04/03 02:43:10;;;;;;;0.70;0.20;;;;;;;27.82;15.68;101316.41;2088666;28;20037;-64
2021/04/03 02:45:02;;;;;;;1.75;0.30;;;;;;;29.71;14.31;101321.53;2094614;28;20036;-64
2021/04/03 02:46:28;;;;;;;1.15;0.40;;;;;;;28.65;14.53;101323.81;2075675;28;20037;-64
2021/04/03 02:47:49;;;;;;;0.77;0.52;;;;;;;26.32;16.49;101322.19;2077377;28;20037;-64
2021/04/03 02:49:15;;;;;;;2.72;0.20;;;;;;;26.99;16.14;101319.75;2084687;28;20028;-65
2021/04/03 02:50:38;;;;;;;0.63;0.20;;;;;;;26.84;16.18;101316.66;2090490;28;20028;-64
2021/04/03 02:51:59;;;;;;;0.28;0.20;;;;;;;27.78;15.32;101331.19;2078646;28;20029;-64
2021/04/03 02:53:21;;;;;;;0.22;0.10;;;;;;;25.27;17.10;101332.94;2089625;28;20068;-64
2021/04/03 02:54:41;;;;;;;0.32;0.20;;;;;;;27.35;16.22;101325.66;2085247;28;20044;-64
2021/04/03 02:56:02;;;;;;;2.10;0.50;;;;;;;28.91;14.87;101319.84;2083681;28;20029;-65
2021/04/03 02:57:23;;;;;;;2.05;0.15;;;;;;;29.76;14.42;101333.19;2087098;28;20104;-66
2021/04/03 02:58:43;;;;;;;0.77;0.20;;;;;;;28.49;14.89;101335.47;2085147;28;20029;-66
2021/04/03 03:00:05;;;;;;;1.25;0.20;;;;;;;28.52;14.99;101329.88;2078338;28;20461;-64
2021/04/03 03:01:24;;;;;;;1.45;0.30;;;;;;;30.53;13.71;101326.47;2081165;28;20959;-64
2021/04/03 03:02:44;;;;;;;2.90;0.30;;;;;;;30.33;13.59;101338.53;2093412;28;20036;-65
2021/04/03 03:04:03;;;;;;;1.42;0.30;;;;;;;28.21;14.99;101345.84;2089092;28;20033;-65
2021/04/03 03:05:23;;;;;;;0.80;0.75;;;;;;;28.31;15.41;101339.00;2090412;28;20036;-64
2021/04/03 03:06:44;;;;;;;0.20;0.10;;;;;;;27.52;15.61;101346.88;2081158;28;20041;-65
2021/04/03 03:08:04;;;;;;;0.57;0.20;;;;;;;27.79;15.58;101339.38;2079885;28;20037;-64
2021/04/03 03:09:24;;;;;;;0.50;0.30;;;;;;;25.43;17.43;101352.47;2080737;28;20038;-64
2021/04/03 03:10:44;;;;;;;4.10;0.40;;;;;;;27.93;15.67;101350.69;2091669;28;20173;-64
2021/04/03 03:12:03;;;;;;;0.40;0.10;;;;;;;25.74;16.65;101344.19;2082964;28;20485;-64
2021/04/03 03:13:23;;;;;;;1.58;0.20;;;;;;;25.62;17.06;101355.50;2087843;28;20697;-65
2021/04/03 03:14:43;;;;;;;0.63;0.40;;;;;;;28.29;15.42;101339.09;2079055;28;20033;-66
2021/04/03 03:16:04;;;;;;;1.10;0.45;;;;;;;27.10;16.08;101339.41;2083517;28;20033;-64
2021/04/03 03:17:23;;;;;;;2.75;0.35;;;;;;;29.00;14.70;101351.50;2090827;28;20484;-64
2021/04/03 03:18:43;;;;;;;2.08;0.22;;;;;;;29.32;14.45;101356.38;2075390;28;20084;-65
2021/04/03 03:20:03;;;;;;;1.42;0.20;;;;;;;28.68;14.67;101363.00;2075668;28;20037;-64
2021/04/03 03:21:22;;;;;;;4.28;0.40;;;;;;;27.50;15.53;101357.91;2083796;28;20033;-65
2021/04/03 03:22:42;;;;;;;0.85;0.25;;;;;;;27.89;15.34;101361.84;2089617;28;20344;-65
2021/04/03 03:24:01;;;;;;;3.30;0.20;;;;;;;26.41;16.46;101352.88;2084343;28;20167;-64
2021/04/03 03:25:20;;;;;;;1.40;0.20;;;;;;;27.83;15.56;101364.81;2079262;28;20029;-64
2021/04/03 03:26:40;;;;;;;0.73;0.20;;;;;;;27.20;15.61;101357.25;2084991;28;20041;-65
2021/04/03 03:27:59;;;;;;;0.38;0.25;;;;;;;29.16;14.70;101355.34;2075147;28;20041;-64
2021/04/03 03:29:18;;;;;;;0.40;0.30;;;;;;;28.21;15.08;101371.44;2075460;28;20280;-65
2021/04/03 03:30:38;;;;;;;1.23;0.50;;;;;;;27.02;15.99;101364.31;2077521;28;20033;-64
2021/04/03 03:31:57;;;;;;;1.33;0.20;;;;;;;27.96;15.67;101367.94;2077775;28;20033;-65
2021/04/03 03:33:17;;;;;;;0.32;0.17;;;;;;;27.80;15.29;101362.19;2085486;28;20041;-64
2021/04/03 03:34:36;;;;;;;0.55;0.22;;;;;;;27.55;15.52;101368.69;2087357;28;20054;-64
2021/04/03 03:35:58;;;;;;;1.25;0.40;;;;;;;26.74;16.38;101370.81;2091961;28;20044;-65
2021/04/03 03:37:17;;;;;;;1.65;0.22;;;;;;;26.58;16.26;101369.59;2082846;28;20029;-66
2021/04/03 03:38:37;;;;;;;0.90;0.28;;;;;;;27.44;15.56;101362.75;2084574;28;20037;-65
2021/04/03 03:39:55;;;;;;;1.70;0.40;;;;;;;29.62;14.28;101383.31;2087068;28;20444;-63
2021/04/03 03:41:16;;;;;;;0.50;0.13;;;;;;;25.19;17.21;101392.31;2082792;28;20040;-64
2021/04/03 03:42:35;;;;;;;4.72;1.20;;;;;;;27.94;15.70;101381.72;2069352;28;20042;-64
2021/04/03 03:43:55;;;;;;;2.17;0.50;;;;;;;26.53;16.51;101377.94;2077033;28;20037;-66
2021/04/03 03:45:14;;;;;;;0.60;0.20;;;;;;;26.04;16.85;101379.66;2076024;28;20045;-66
2021/04/03 03:46:34;;;;;;;0.30;0.30;;;;;;;28.61;15.06;101382.53;2078143;28;20037;-65
2021/04/03 03:47:54;;;;;;;0.65;0.20;;;;;;;27.84;15.54;101380.28;2075352;28;20074;-64
2021/04/03 03:49:13;;;;;;;2.55;0.80;;;;;;;27.93;15.40;101383.56;2089281;28;20028;-67
2021/04/03 03:50:32;;;;;;;1.75;0.40;;;;;;;27.06;16.04;101395.22;2087279;28;20056;-65
2021/04/03 03:51:51;;;;;;;0.95;0.45;;;;;;;28.16;15.26;101389.06;2088893;28;20029;-65
2021/04/03 03:53:10;;;;;;;2.00;0.40;;;;;;;27.74;15.54;101374.31;2083766;28;20568;-64
2021/04/03 03:54:29;;;;;;;1.58;0.30;;;;;;;26.94;16.02;101383.78;2072930;28;20525;-65
2021/04/03 03:55:47;;;;;;;1.02;0.40;;;;;;;25.40;17.14;101395.34;2086732;28;20033;-64
2021/04/03 03:57:06;;;;;;;1.98;0.57;;;;;;;28.53;15.42;101389.25;2079666;28;20037;-66
2021/04/03 03:58:26;;;;;;;2.17;0.40;;;;;;;28.70;15.21;101393.09;2075274;28;20036;-64
2021/04/03 03:59:44;;;;;;;2.65;0.93;;;;;;;26.24;16.46;101409.03;2083207;28;20033;-65
2021/04/03 04:01:03;;;;;;;0.75;0.30;;;;;;;27.45;15.64;101401.03;2094102;28;20036;-66
2021/04/03 04:02:23;;;;;;;1.80;0.30;;;;;;;28.01;15.35;101398.81;2090250;28;20429;-63
2021/04/03 04:03:42;;;;;;;1.00;0.45;;;;;;;27.28;15.93;101404.44;2081499;28;20041;-65
2021/04/03 04:05:02;;;;;;;0.85;0.35;;;;;;;26.93;16.11;101403.91;2084784;28;20037;-66
2021/04/03 04:06:21;;;;;;;1.20;0.43;;;;;;;26.52;16.51;101392.56;2093610;28;20068;-64
2021/04/03 04:07:40;;;;;;;1.17;0.40;;;;;;;26.91;15.87;101394.84;2092596;28;20468;-64
2021/04/03 04:09:02;;;;;;;1.08;0.35;;;;;;;26.46;16.61;101411.00;2072769;28;20422;-65
2021/04/03 04:10:22;;;;;;;1.10;0.38;;;;;;;25.72;16.82;101406.16;2081921;28;20036;-65
2021/04/03 04:11:41;;;;;;;2.63;0.63;;;;;;;29.39;14.75;101408.28;2092899;28;20025;-65
2021/04/03 04:13:03;;;;;;;3.75;0.60;;;;;;;29.16;14.46;101413.00;2075653;28;20133;-66
2021/04/03 04:14:22;;;;;;;1.10;0.50;;;;;;;27.42;15.44;101408.47;2075901;28;20068;-65
2021/04/03 04:15:42;;;;;;;3.70;0.63;;;;;;;27.19;16.00;101395.63;2081095;28;20040;-64
2021/04/03 04:17:01;;;;;;;2.78;0.40;;;;;;;27.48;15.64;101410.97;2075417;28;20047;-65
2021/04/03 04:18:20;;;;;;;2.53;0.52;;;;;;;27.23;16.09;101408.28;2078853;28;20037;-65
2021/04/03 04:19:40;;;;;;;0.88;0.30;;;;;;;28.20;15.49;101410.78;2081987;28;20108;-65
2021/04/03 04:20:59;;;;;;;3.60;0.60;;;;;;;28.52;14.98;101412.19;2078237;28;20040;-63
2021/04/03 04:22:18;;;;;;;2.38;0.35;;;;;;;28.35;14.91;101420.19;2079097;28;20492;-65
2021/04/03 04:23:37;;;;;;;2.42;0.30;;;;;;;26.09;16.56;101413.19;2082451;28;20033;-64
2021/04/03 04:24:56;;;;;;;2.83;0.43;;;;;;;27.17;16.15;101409.38;2083325;28;20071;-64
2021/04/03 04:26:16;;;;;;;2.58;0.50;;;;;;;28.01;15.47;101413.41;2087788;28;20032;-64
2021/04/03 04:27:35;;;;;;;2.78;0.38;;;;;;;25.96;17.17;101420.00;2086991;28;20500;-64
2021/04/03 04:28:54;;;;;;;3.00;0.40;;;;;;;27.07;16.11;101406.09;2080749;28;20505;-64
2021/04/03 04:30:14;;;;;;;2.25;0.45;;;;;;;26.46;16.41;101405.56;2083623;28;20125;-64
2021/04/03 04:31:33;;;;;;;0.63;0.30;;;;;;;27.29;15.97;101411.69;2085880;28;20124;-64
2021/04/03 04:32:53;;;;;;;0.95;0.40;;;;;;;26.07;16.89;101406.88;2082710;28;20040;-64
2021/04/03 04:34:12;;;;;;;1.10;0.50;;;;;;;25.10;17.67;101411.66;2083266;28;20105;-63
2021/04/03 04:35:31;;;;;;;1.15;0.40;;;;;;;25.64;17.18;101419.16;2082269;28;20037;-62
2021/04/03 04:36:51;;;;;;;6.35;1.02;;;;;;;24.17;18.35;101413.25;2082464;28;20042;-64
2021/04/03 04:38:09;;;;;;;1.85;0.40;;;;;;;26.11;17.10;101413.16;2086520;28;20479;-65
2021/04/03 04:39:29;;;;;;;3.47;0.50;;;;;;;25.95;16.76;101412.75;2084028;28;20037;-64
2021/04/03 04:40:48;;;;;;;3.33;0.60;;;;;;;26.10;17.01;101423.16;2082272;28;20389;-64
2021/04/03 04:42:07;;;;;;;6.10;0.75;;;;;;;26.81;16.25;101428.97;2081676;28;20044;-63
2021/04/03 04:43:26;;;;;;;0.70;0.38;;;;;;;26.77;16.43;101421.81;2084440;28;20040;-64
2021/04/03 04:44:45;;;;;;;3.78;0.50;;;;;;;23.43;18.80;101431.31;2084372;28;20408;-63
2021/04/03 04:46:04;;;;;;;2.53;0.47;;;;;;;25.63;17.45;101428.28;2073989;28;20033;-65
2021/04/03 04:47:23;;;;;;;1.70;0.30;;;;;;;25.57;17.13;101428.47;2083050;28;20029;-63
2021/04/03 04:48:42;;;;;;;1.17;0.63;;;;;;;25.05;18.03;101436.34;2085571;28;20040;-64
2021/04/03 04:50:01;;;;;;;0.80;0.40;;;;;;;24.82;17.84;101447.03;2081712;28;20104;-64
2021/04/03 04:51:20;;;;;;;1.00;0.40;;;;;;;25.43;17.09;101447.13;2072092;28;20533;-63
2021/04/03 04:52:39;;;;;;;1.90;0.60;;;;;;;26.45;16.89;101451.16;2068822;28;20041;-63
2021/04/03 04:53:59;;;;;;;3.00;0.30;;;;;;;26.61;16.35;101451.56;2084576;28;20124;-63
2021/04/03 04:55:18;;;;;;;0.95;0.40;;;;;;;24.39;18.08;101432.66;2084085;28;20777;-64
2021/04/03 04:56:38;;;;;;;2.05;0.60;;;;;;;25.30;17.42;101443.88;2086549;28;20032;-64
2021/04/03 04:57:56;;;;;;;2.47;0.47;;;;;;;26.07;17.13;101438.78;2080098;28;20036;-62
2021/04/03 04:59:15;;;;;;;3.53;0.40;;;;;;;28.01;15.75;101449.06;2078820;28;20041;-63
2021/04/03 05:00:35;;;;;;;0.95;0.52;;;;;;;27.52;15.96;101450.97;2079849;28;20138;-64
2021/04/03 05:01:54;;;;;;;12.07;0.73;;;;;;;26.10;16.28;101458.69;2085640;28;20045;-64
2021/04/03 05:03:12;;;;;;;5.03;0.40;;;;;;;25.50;16.97;101448.75;2081186;28;20029;-64
2021/04/03 05:04:32;;;;;;;2.55;0.68;;;;;;;25.05;17.58;101444.53;2083225;28;20447;-66
2021/04/03 05:05:51;;;;;;;1.65;0.55;;;;;;;25.53;17.33;101449.56;2080715;28;20463;-65
2021/04/03 05:07:10;;;;;;;1.52;0.47;;;;;;;26.49;16.48;101461.03;2087707;28;20025;-65
2021/04/03 05:08:29;;;;;;;2.17;0.70;;;;;;;26.78;16.35;101459.16;2085315;28;20111;-64
2021/04/03 05:09:48;;;;;;;3.92;0.35;;;;;;;24.10;18.13;101466.09;2078706;28;20060;-65
2021/04/03 05:11:06;;;;;;;3.33;0.68;;;;;;;24.85;17.67;101464.22;2078779;28;20115;-64
2021/04/03 05:12:25;;;;;;;2.55;0.50;;;;;;;25.41;17.43;101449.00;2085210;28;20067;-66
2021/04/03 05:13:44;;;;;;;3.05;0.85;;;;;;;24.60;17.55;101469.41;2086823;28;20037;-63
2021/04/03 05:15:04;;;;;;;3.22;0.57;;;;;;;23.74;18.67;101460.53;2082100;28;21245;-63
2021/04/03 05:16:23;;;;;;;4.70;0.50;;;;;;;24.74;17.71;101469.06;2083137;28;20041;-64
2021/04/03 05:17:42;;;;;;;2.28;0.40;;;;;;;25.06;17.77;101453.63;2083326;28;20124;-63
2021/04/03 05:19:01;;;;;;;1.45;0.60;;;;;;;25.63;17.16;101461.06;2092808;28;20051;-64
2021/04/03 05:20:21;;;;;;;1.85;0.50;;;;;;;25.60;17.33;101460.28;2094737;28;20032;-63
2021/04/03 05:21:40;;;;;;;0.80;0.40;;;;;;;24.18;18.40;101464.09;2069472;28;20124;-64
2021/04/03 05:22:59;;;;;;;2.30;0.40;;;;;;;23.64;18.80;101467.13;2081532;28;20037;-64
2021/04/03 05:24:19;;;;;;;3.67;0.40;;;;;;;23.70;19.04;101462.47;2080738;28;20061;-64
2021/04/03 05:25:38;;;;;;;1.65;0.55;;;;;;;24.29;18.14;101466.53;2085097;28;20107;-63
2021/04/03 05:26:57;;;;;;;1.52;0.47;;;;;;;25.81;17.13;101466.91;2083265;28;20042;-63
2021/04/03 05:28:16;;;;;;;1.00;0.52;;;;;;;25.58;17.38;101468.50;2079476;28;20033;-65
2021/04/03 05:29:35;;;;;;;2.17;0.60;;;;;;;26.22;16.39;101462.88;2085634;28;20033;-65
2021/04/03 05:30:54;;;;;;;0.43;0.30;;;;;;;24.01;18.25;101478.13;2083342;28;20076;-65
2021/04/03 05:32:13;;;;;;;3.42;0.60;;;;;;;24.67;17.83;101456.53;2074209;28;20045;-66
2021/04/03 05:33:32;;;;;;;2.53;0.45;;;;;;;27.26;16.18;101458.38;2081113;28;20377;-64
2021/04/03 05:34:51;;;;;;;3.40;0.63;;;;;;;25.78;17.54;101465.19;2076538;28;20033;-67
2021/04/03 05:36:10;;;;;;;2.10;0.50;;;;;;;24.97;17.88;101467.53;2067069;28;20033;-66
2021/04/03 05:37:30;;;;;;;4.53;0.70;;;;;;;23.09;19.26;101480.06;2075799;28;20041;-65
2021/04/03 05:38:49;;;;;;;0.70;0.47;;;;;;;24.00;18.70;101470.88;2083515;28;20392;-65
2021/04/03 05:40:09;;;;;;;2.05;0.57;;;;;;;24.50;18.01;101471.50;2090584;28;20033;-65
2021/04/03 05:41:29;;;;;;;2.15;0.70;;;;;;;24.20;18.39;101461.34;2081914;28;20045;-65
2021/04/03 05:42:49;;;;;;;4.90;0.60;;;;;;;24.41;18.02;101479.88;2082387;28;20491;-66
2021/04/03 05:44:10;;;;;;;2.20;0.40;;;;;;;24.25;18.51;101473.00;2080027;28;20408;-66
2021/04/03 05:45:29;;;;;;;4.43;0.60;;;;;;;23.17;19.38;101482.66;2079155;28;20033;-65
2021/04/03 05:46:49;;;;;;;1.17;0.38;;;;;;;25.38;17.62;101481.88;2077331;28;20029;-66
2021/04/03 05:48:08;;;;;;;2.25;0.60;;;;;;;24.71;18.16;101482.78;2079637;28;20041;-67
2021/04/03 05:49:27;;;;;;;1.02;0.32;;;;;;;25.31;17.55;101475.69;2080847;28;20059;-65
2021/04/03 05:50:48;;;;;;;2.67;0.70;;;;;;;25.24;17.65;101480.41;2085019;28;20037;-67
2021/04/03 05:52:07;;;;;;;2.08;0.70;;;;;;;24.60;18.02;101487.59;2084433;28;20088;-65
2021/04/03 05:53:27;;;;;;;1.23;0.40;;;;;;;22.76;19.45;101509.66;2079119;28;20513;-65
2021/04/03 05:54:46;;;;;;;1.42;0.45;;;;;;;24.89;17.69;101485.03;2074791;28;20041;-65
2021/04/03 05:56:06;;;;;;;2.13;0.52;;;;;;;23.12;19.15;101490.88;2081325;28;20485;-66
2021/04/03 05:57:25;;;;;;;1.33;0.50;;;;;;;22.64;19.71;101478.13;2070986;28;20037;-65
2021/04/03 05:58:45;;;;;;;2.85;0.40;;;;;;;22.19;19.83;101491.53;2079259;28;20064;-65
2021/04/03 06:00:05;;;;;;;3.50;0.40;;;;;;;22.23;20.05;101486.97;2083133;28;20037;-65
2021/04/03 06:01:24;;;;;;;4.82;0.57;;;;;;;23.37;18.93;101468.63;2079485;28;20029;-66
2021/04/03 06:02:44;;;;;;;4.47;0.60;;;;;;;24.11;18.30;101506.03;2084724;28;20116;-66
2021/04/03 06:04:02;;;;;;;2.60;0.43;;;;;;;24.73;17.97;101497.28;2090663;28;20033;-68
2021/04/03 06:05:21;;;;;;;0.75;0.40;;;;;;;22.72;19.61;101499.75;2085829;28;20112;-66
2021/04/03 06:06:42;;;;;;;1.98;0.50;;;;;;;23.84;18.87;101488.50;2081302;28;20037;-66
2021/04/03 06:08:00;;;;;;;8.23;0.80;;;;;;;22.91;19.45;101503.91;2080255;28;20029;-66
2021/04/03 06:09:19;;;;;;;4.50;0.55;;;;;;;23.06;19.13;101507.31;2088166;28;20049;-67
2021/04/03 06:10:39;;;;;;;0.95;0.47;;;;;;;23.30;19.07;101492.34;2094997;28;20037;-66
2021/04/03 06:11:58;;;;;;;1.83;0.65;;;;;;;24.13;18.24;101499.63;2093997;28;20051;-66
2021/04/03 06:13:17;;;;;;;3.63;0.50;;;;;;;23.11;19.10;101514.47;2079183;28;20036;-65
2021/04/03 06:14:37;;;;;;;3.60;0.50;;;;;;;25.21;17.78;101496.00;2077866;28;20519;-64